createdAt,value
2023-03-30T00:01:36.883Z,99528.13
2023-03-30T00:04:05.117Z,99519.53
2023-03-30T00:06:34.269Z,99516.09
2023-03-30T00:09:06.203Z,99507.41
2023-03-30T00:11:34.371Z,99516.00
2023-03-30T00:14:02.860Z,99509.94
2023-03-30T00:16:30.785Z,99508.22
2023-03-30T00:18:58.943Z,99497.84
2023-03-30T00:21:28.159Z,99496.91
2023-03-30T00:23:55.863Z,99502.06
2023-03-30T00:26:24.958Z,99492.59
2023-03-30T00:28:52.937Z,99490.84
2023-03-30T00:31:21.155Z,99487.38
2023-03-30T00:33:50.246Z,99487.38
2023-03-30T00:36:18.096Z,99483.94
2023-03-30T00:38:48.233Z,99483.94
2023-03-30T00:41:16.968Z,99478.78
2023-03-30T00:44:30.215Z,99492.53
2023-03-30T00:46:59.983Z,99481.44
2023-03-30T00:49:28.120Z,99483.22
2023-03-30T00:51:55.946Z,99475.56
2023-03-30T00:54:23.783Z,99490.16
2023-03-30T00:56:51.619Z,99491.91
2023-03-30T00:59:20.852Z,99492.75
2023-03-30T01:01:50.255Z,99487.59
2023-03-30T01:04:18.791Z,99491.94
2023-03-30T01:06:47.983Z,99494.53
2023-03-30T01:09:17.382Z,99503.13
2023-03-30T01:11:45.487Z,99504.00
2023-03-30T01:14:16.091Z,99502.31
2023-03-30T01:16:53.571Z,99507.44
2023-03-30T01:19:51.193Z,99510.00
2023-03-30T01:23:05.214Z,99513.44
2023-03-30T01:26:06.965Z,99530.63
2023-03-30T01:28:47.411Z,99519.41
2023-03-30T01:31:45.582Z,99515.88
2023-03-30T01:34:37.037Z,99506.31
2023-03-30T01:37:34.639Z,99501.97
2023-03-30T01:44:59.852Z,99496.69
2023-03-30T01:47:36.371Z,99489.03
2023-03-30T01:50:09.844Z,99494.09
2023-03-30T01:52:42.588Z,99495.84
2023-03-30T01:55:15.000Z,99513.88
2023-03-30T01:57:47.606Z,99518.09
2023-03-30T02:00:19.217Z,99519.78
2023-03-30T02:02:54.503Z,99525.13
2023-03-30T02:05:24.100Z,99523.41
2023-03-30T02:07:59.818Z,99526.13
2023-03-30T02:10:31.544Z,99530.63
2023-03-30T02:13:01.000Z,99535.13
2023-03-30T02:15:35.607Z,99534.56
2023-03-30T02:18:05.241Z,99530.09
2023-03-30T02:20:34.525Z,99519.88
2023-03-30T02:23:06.062Z,99500.09
2023-03-30T02:25:35.941Z,99495.78
2023-03-30T02:28:03.949Z,99494.94
2023-03-30T02:30:34.390Z,99494.91
2023-03-30T02:33:02.526Z,99489.75
2023-03-30T02:35:51.602Z,99482.84
2023-03-30T02:38:41.689Z,99448.31
2023-03-30T02:41:22.468Z,99441.41
2023-03-30T02:43:57.149Z,99425.84
2023-03-30T02:46:50.492Z,99408.53
2023-03-30T02:49:26.790Z,99415.47
2023-03-30T02:52:08.904Z,99411.13
2023-03-30T02:54:49.694Z,99402.50
2023-03-30T02:57:30.832Z,99418.88
2023-03-30T03:00:23.723Z,99420.53
2023-03-30T03:02:57.389Z,99423.94
2023-03-30T03:05:32.479Z,99424.78
2023-03-30T03:08:24.794Z,99430.81
2023-03-30T03:10:53.058Z,99447.13
2023-03-30T03:13:22.052Z,99451.44
2023-03-30T03:15:50.630Z,99445.38
2023-03-30T03:18:18.472Z,99442.72
2023-03-30T03:20:46.452Z,99452.19
2023-03-30T03:23:14.485Z,99446.16
2023-03-30T03:25:53.154Z,99438.38
2023-03-30T03:28:21.625Z,99446.13
2023-03-30T03:30:53.382Z,99421.94
2023-03-30T03:33:27.061Z,99402.13
2023-03-30T03:36:12.111Z,99339.22
2023-03-30T03:38:46.019Z,99346.06
2023-03-30T03:41:16.505Z,99344.34
2023-03-30T03:43:45.128Z,99366.72
2023-03-30T03:46:16.342Z,99360.69
2023-03-30T03:48:44.869Z,99379.63
2023-03-30T03:51:12.712Z,99380.50
2023-03-30T03:53:40.662Z,99378.78
2023-03-30T03:56:14.339Z,99368.44
2023-03-30T03:58:43.613Z,99362.41
2023-03-30T04:01:14.308Z,99359.84
2023-03-30T04:03:42.512Z,99358.09
2023-03-30T04:06:10.284Z,99352.94
2023-03-30T04:08:38.139Z,99333.09
2023-03-30T04:11:26.618Z,99341.72
2023-03-30T04:14:24.455Z,99330.53
2023-03-30T04:17:09.224Z,99337.38
2023-03-30T04:20:04.816Z,99331.34
2023-03-30T04:22:53.210Z,99320.13
2023-03-30T04:25:52.853Z,99321.00
2023-03-30T04:28:40.181Z,99322.69
2023-03-30T04:31:23.856Z,99326.13
2023-03-30T04:34:09.388Z,99337.31
2023-03-30T04:36:51.446Z,99326.97
2023-03-30T04:39:29.983Z,99326.97
2023-03-30T04:42:19.969Z,99327.78
2023-03-30T04:44:59.867Z,99323.47
2023-03-30T04:47:47.371Z,99332.09
2023-03-30T04:50:35.602Z,99321.78
2023-03-30T04:53:26.274Z,99318.28
2023-03-30T04:56:26.126Z,99315.72
2023-03-30T04:58:57.021Z,99302.81
2023-03-30T05:01:41.908Z,99295.91
2023-03-30T05:04:13.491Z,99289.00
2023-03-30T05:06:59.723Z,99273.47
2023-03-30T05:09:49.190Z,99270.91
2023-03-30T05:12:39.740Z,99268.28
2023-03-30T05:15:15.913Z,99269.16
2023-03-30T05:17:43.518Z,99269.16
2023-03-30T05:20:31.656Z,99273.41
2023-03-30T05:23:09.356Z,99280.34
2023-03-30T05:25:56.053Z,99291.53
2023-03-30T05:28:44.764Z,99316.47
2023-03-30T05:31:38.152Z,99370.69
2023-03-30T05:34:28.917Z,99474.78
2023-03-30T05:37:11.697Z,99492.00
2023-03-30T05:39:44.524Z,99481.81
2023-03-30T05:42:35.080Z,99478.50
2023-03-30T05:45:11.703Z,99487.28
2023-03-30T05:47:58.255Z,99496.00
2023-03-30T05:50:49.230Z,99506.44
2023-03-30T05:53:28.555Z,99498.72
2023-03-30T05:56:15.684Z,99497.91
2023-03-30T05:58:57.001Z,99489.22
2023-03-30T06:01:40.676Z,99484.88
2023-03-30T06:04:08.862Z,99506.44
2023-03-30T06:06:37.548Z,99522.84
2023-03-30T06:09:06.630Z,99528.00
2023-03-30T06:11:36.159Z,99541.84
2023-03-30T06:14:12.921Z,99535.81
2023-03-30T06:16:44.833Z,99532.31
2023-03-30T06:19:14.523Z,99522.84
2023-03-30T06:21:42.118Z,99530.59
2023-03-30T06:24:27.748Z,99530.59
2023-03-30T06:26:56.392Z,99554.69
2023-03-30T06:29:24.246Z,99572.78
2023-03-30T06:31:52.105Z,99577.97
2023-03-30T06:34:46.019Z,99555.56
2023-03-30T06:37:15.448Z,99554.63
2023-03-30T06:39:45.848Z,99565.03
2023-03-30T06:42:13.543Z,99583.97
2023-03-30T06:44:58.187Z,99590.75
2023-03-30T06:47:26.170Z,99573.50
2023-03-30T06:49:53.758Z,99553.66
2023-03-30T06:52:53.612Z,99536.41
2023-03-30T06:55:24.011Z,99538.13
2023-03-30T06:57:51.638Z,99544.16
2023-03-30T07:00:20.622Z,99548.41
2023-03-30T07:03:07.277Z,99565.69
2023-03-30T07:06:02.758Z,99570.00
2023-03-30T07:08:40.253Z,99582.88
2023-03-30T07:11:09.666Z,99588.00
2023-03-30T07:13:40.070Z,99583.69
2023-03-30T07:16:08.909Z,99572.44
2023-03-30T07:18:36.698Z,99576.78
2023-03-30T07:21:06.108Z,99561.28
2023-03-30T07:23:39.366Z,99564.72
2023-03-30T07:26:08.978Z,99552.63
2023-03-30T07:28:48.159Z,99547.47
2023-03-30T07:31:17.128Z,99574.16
2023-03-30T07:33:44.975Z,99583.63
2023-03-30T07:36:20.831Z,99593.91
2023-03-30T07:38:48.530Z,99593.97
2023-03-30T07:41:19.634Z,99600.91
2023-03-30T07:43:51.374Z,99610.38
2023-03-30T07:46:19.142Z,99623.34
2023-03-30T07:48:50.624Z,99627.75
2023-03-30T07:51:20.114Z,99609.66
2023-03-30T07:54:07.161Z,99613.00
2023-03-30T07:56:52.499Z,99600.94
2023-03-30T07:59:20.538Z,99598.31
2023-03-30T08:01:50.205Z,99597.44
2023-03-30T08:04:39.091Z,99570.72
2023-03-30T08:07:08.049Z,99542.31
2023-03-30T08:09:35.858Z,99526.84
2023-03-30T08:12:05.464Z,99538.91
2023-03-30T08:14:33.010Z,99540.63
2023-03-30T08:17:00.570Z,99538.88
2023-03-30T08:19:28.587Z,99536.31
2023-03-30T08:21:57.146Z,99539.81
2023-03-30T08:24:25.046Z,99530.38
2023-03-30T08:26:52.626Z,99519.22
2023-03-30T08:29:22.018Z,99518.38
2023-03-30T08:31:49.572Z,99509.81
2023-03-30T08:34:17.132Z,99504.75
2023-03-30T08:36:44.748Z,99520.38
2023-03-30T08:39:12.278Z,99515.25
2023-03-30T08:42:01.874Z,99508.38
2023-03-30T08:44:35.334Z,99507.53
2023-03-30T08:47:04.727Z,99499.81
2023-03-30T08:49:37.002Z,99494.69
2023-03-30T08:52:06.290Z,99501.66
2023-03-30T08:54:34.796Z,99508.59
2023-03-30T08:57:09.967Z,99509.53
2023-03-30T08:59:45.300Z,99495.78
2023-03-30T09:02:18.481Z,99509.59
2023-03-30T09:04:58.114Z,99536.41
2023-03-30T09:07:28.794Z,99547.63
2023-03-30T09:09:58.253Z,99551.97
2023-03-30T09:12:34.302Z,99548.47
2023-03-30T09:15:08.439Z,99579.56
2023-03-30T09:17:42.649Z,99582.19
2023-03-30T09:20:16.822Z,99570.91
2023-03-30T09:22:46.590Z,99580.47
2023-03-30T09:25:17.155Z,99596.00
2023-03-30T09:27:53.022Z,99605.53
2023-03-30T09:30:24.113Z,99617.63
2023-03-30T09:33:03.365Z,99633.16
2023-03-30T09:35:39.559Z,99634.00
2023-03-30T09:38:10.025Z,99623.56
2023-03-30T09:41:01.460Z,99591.59
2023-03-30T09:43:34.878Z,99598.44
2023-03-30T09:46:07.818Z,99573.44
2023-03-30T09:48:43.123Z,99563.91
2023-03-30T09:51:21.083Z,99590.66
2023-03-30T09:53:51.618Z,99554.44
2023-03-30T09:56:23.130Z,99543.16
2023-03-30T09:58:50.842Z,99545.78
2023-03-30T10:01:22.161Z,99561.41
2023-03-30T10:04:08.976Z,99563.13
2023-03-30T10:06:39.647Z,99539.84
2023-03-30T10:09:12.431Z,99541.56
2023-03-30T10:11:43.270Z,99544.16
2023-03-30T10:14:29.484Z,99548.50
2023-03-30T10:16:59.400Z,99544.13
2023-03-30T10:19:27.472Z,99562.28
2023-03-30T10:21:57.476Z,99551.94
2023-03-30T10:24:27.922Z,99551.06
2023-03-30T10:27:01.307Z,99564.91
2023-03-30T10:29:29.980Z,99546.72
2023-03-30T10:32:02.946Z,99545.88
2023-03-30T10:34:37.135Z,99551.91
2023-03-30T10:37:11.724Z,99539.78
2023-03-30T10:39:41.796Z,99534.63
2023-03-30T10:42:15.908Z,99527.69
2023-03-30T10:44:48.221Z,99520.72
2023-03-30T10:47:36.496Z,99526.69
2023-03-30T10:50:13.443Z,99518.03
2023-03-30T10:52:58.565Z,99527.44
2023-03-30T10:55:34.622Z,99534.25
2023-03-30T10:58:13.682Z,99543.06
2023-03-30T11:00:56.764Z,99538.66
2023-03-30T11:03:29.238Z,99536.09
2023-03-30T11:06:04.839Z,99537.84
2023-03-30T11:08:38.024Z,99546.53
2023-03-30T11:11:07.868Z,99540.50
2023-03-30T11:13:39.840Z,99554.25
2023-03-30T11:16:13.722Z,99539.72
2023-03-30T11:18:49.498Z,99537.09
2023-03-30T11:21:22.347Z,99533.63
2023-03-30T11:23:54.080Z,99539.63
2023-03-30T11:26:25.649Z,99561.81
2023-03-30T11:29:02.809Z,99565.28
2023-03-30T11:31:57.222Z,99565.00
2023-03-30T11:34:32.856Z,99546.78
2023-03-30T11:37:09.280Z,99549.78
2023-03-30T11:39:42.184Z,99557.22
2023-03-30T11:42:17.186Z,99551.94
2023-03-30T11:44:44.977Z,99571.03
2023-03-30T11:47:30.969Z,99552.34
2023-03-30T11:50:14.739Z,99561.22
2023-03-30T11:52:50.117Z,99564.47
2023-03-30T11:55:28.969Z,99557.69
2023-03-30T11:58:07.933Z,99552.31
2023-03-30T12:00:49.156Z,99552.69
2023-03-30T12:03:28.032Z,99548.34
2023-03-30T12:06:12.911Z,99556.41
2023-03-30T12:08:56.277Z,99530.97
2023-03-30T12:11:34.292Z,99549.53
2023-03-30T12:18:26.172Z,99534.69
2023-03-30T12:21:04.122Z,99509.19
2023-03-30T12:23:43.085Z,99519.97
2023-03-30T12:26:23.535Z,99526.34
2023-03-30T12:29:40.573Z,99512.13
2023-03-30T12:31:52.467Z,99518.59
2023-03-30T12:34:20.896Z,99498.94
2023-03-30T12:36:55.191Z,99501.56
2023-03-30T12:39:31.207Z,99501.22
2023-03-30T12:42:06.681Z,99540.28
2023-03-30T12:44:42.732Z,99528.34
2023-03-30T12:47:32.988Z,99527.13
2023-03-30T12:50:15.916Z,99597.56
2023-03-30T12:53:01.858Z,99536.94
2023-03-30T12:55:43.325Z,99536.22
2023-03-30T12:58:43.944Z,99518.16
2023-03-30T13:01:24.889Z,99520.00
2023-03-30T13:03:54.139Z,99519.00
2023-03-30T13:06:29.786Z,99486.13
2023-03-30T13:09:25.268Z,99480.84
2023-03-30T13:12:22.069Z,99511.84
2023-03-30T13:14:59.351Z,99505.78
2023-03-30T13:17:27.732Z,99527.28
2023-03-30T13:20:28.114Z,99525.63
2023-03-30T13:23:05.897Z,99529.06
2023-03-30T13:25:45.329Z,99520.66
2023-03-30T13:28:48.768Z,99504.25
2023-03-30T13:31:37.514Z,99510.47
2023-03-30T13:34:17.315Z,99513.03
2023-03-30T13:36:55.075Z,99513.25
2023-03-30T13:39:28.949Z,99504.16
2023-03-30T13:42:13.090Z,99510.34
2023-03-30T13:44:56.781Z,99514.19
2023-03-30T13:47:41.720Z,99510.31
2023-03-30T13:50:21.467Z,99494.69
2023-03-30T13:52:51.164Z,99486.13
2023-03-30T13:55:33.133Z,99488.78
2023-03-30T13:58:05.635Z,99496.59
2023-03-30T14:00:44.737Z,99503.56
2023-03-30T14:03:31.471Z,99493.19
2023-03-30T14:06:05.505Z,99488.84
2023-03-30T14:08:35.435Z,99513.94
2023-03-30T14:11:06.890Z,99546.75
2023-03-30T14:13:38.485Z,99564.91
2023-03-30T14:16:08.179Z,99561.91
2023-03-30T14:18:36.502Z,99541.41
2023-03-30T14:21:07.519Z,99543.72
2023-03-30T14:23:38.201Z,99541.78
2023-03-30T14:26:07.601Z,99549.84
2023-03-30T14:28:38.372Z,99527.84
2023-03-30T14:31:13.282Z,99546.34
2023-03-30T14:33:41.372Z,99532.38
2023-03-30T14:36:12.497Z,99533.47
2023-03-30T14:38:42.297Z,99529.03
2023-03-30T14:41:14.467Z,99523.94
2023-03-30T14:43:51.653Z,99528.44
2023-03-30T14:46:19.401Z,99521.06
2023-03-30T14:48:50.694Z,99513.88
2023-03-30T14:51:27.003Z,99510.63
2023-03-30T14:53:57.667Z,99505.59
2023-03-30T14:56:25.875Z,99511.56
2023-03-30T14:58:56.202Z,99507.78
2023-03-30T15:01:31.063Z,99503.09
2023-03-30T15:04:00.765Z,99537.44
2023-03-30T15:06:30.962Z,99542.75
2023-03-30T15:09:02.423Z,99523.63
2023-03-30T15:11:32.416Z,99517.34
2023-03-30T15:14:08.829Z,99504.41
2023-03-30T15:16:38.462Z,99516.22
2023-03-30T15:19:13.500Z,99495.72
2023-03-30T15:21:41.674Z,99510.63
2023-03-30T15:24:17.262Z,99504.66
2023-03-30T15:26:47.578Z,99509.63
2023-03-30T15:29:19.189Z,99519.75
2023-03-30T15:31:46.763Z,99517.31
2023-03-30T15:34:16.892Z,99520.25
2023-03-30T15:36:45.489Z,99511.00
2023-03-30T15:39:25.481Z,99514.75
2023-03-30T15:42:01.460Z,99508.97
2023-03-30T15:44:33.756Z,99513.41
2023-03-30T15:47:02.190Z,99510.41
2023-03-30T16:02:42.407Z,99504.56
2023-03-30T16:05:18.360Z,99526.56
2023-03-30T16:07:46.135Z,99511.88
2023-03-30T16:10:15.305Z,99508.06
2023-03-30T16:12:44.638Z,99513.38
2023-03-30T16:15:14.666Z,99514.56
2023-03-30T16:17:42.970Z,99517.94
2023-03-30T16:20:17.412Z,99507.34
2023-03-30T16:22:47.275Z,99517.44
2023-03-30T16:25:15.889Z,99532.91
2023-03-30T16:27:44.325Z,99525.00
2023-03-30T16:30:18.066Z,99531.59
2023-03-30T16:32:46.222Z,99513.81
2023-03-30T16:35:16.262Z,99517.50
2023-03-30T16:37:43.895Z,99505.47
2023-03-30T16:40:20.025Z,99517.31
2023-03-30T16:42:47.701Z,99506.66
2023-03-30T16:45:15.522Z,99510.59
2023-03-30T16:47:44.190Z,99509.41
2023-03-30T16:50:20.822Z,99497.22
2023-03-30T16:52:48.447Z,99508.47
2023-03-30T16:55:16.554Z,99499.94
2023-03-30T16:57:44.470Z,99511.09
2023-03-30T17:00:19.728Z,99505.50
2023-03-30T17:02:47.557Z,99502.09
2023-03-30T17:05:15.375Z,99502.66
2023-03-30T17:07:44.656Z,99498.16
2023-03-30T17:10:26.332Z,99494.94
2023-03-30T17:12:55.419Z,99492.25
2023-03-30T17:15:24.661Z,99501.19
2023-03-30T17:17:52.834Z,99502.91
2023-03-30T17:20:24.697Z,99497.75
2023-03-30T17:22:53.665Z,99489.16
2023-03-30T17:25:23.688Z,99501.47
2023-03-30T17:27:52.404Z,99502.31
2023-03-30T17:30:23.734Z,99500.81
2023-03-30T17:32:51.820Z,99505.09
2023-03-30T17:35:19.591Z,99499.91
2023-03-30T17:37:47.185Z,99506.91
2023-03-30T17:40:22.347Z,99518.09
2023-03-30T17:42:50.513Z,99513.84
2023-03-30T17:45:19.929Z,99519.88
2023-03-30T17:47:48.515Z,99522.50
2023-03-30T17:50:20.824Z,99535.50
2023-03-30T17:52:48.575Z,99524.25
2023-03-30T17:55:19.398Z,99522.53
2023-03-30T17:57:47.090Z,99519.94
2023-03-30T18:00:21.432Z,99510.47
2023-03-30T18:02:49.733Z,99512.16
2023-03-30T18:05:17.968Z,99512.19
2023-03-30T18:07:46.504Z,99518.25
2023-03-30T18:10:20.332Z,99519.97
2023-03-30T18:12:48.798Z,99522.56
2023-03-30T18:15:18.645Z,99521.69
2023-03-30T18:17:46.642Z,99526.03
2023-03-30T18:20:27.459Z,99527.75
2023-03-30T18:22:55.080Z,99528.63
2023-03-30T18:25:32.408Z,99535.53
2023-03-30T18:28:01.098Z,99526.88
2023-03-30T18:30:30.456Z,99536.38
2023-03-30T18:32:58.681Z,99531.22
2023-03-30T18:35:28.724Z,99529.50
2023-03-30T18:37:57.253Z,99527.75
2023-03-30T18:40:31.219Z,99534.66
2023-03-30T18:43:00.899Z,99536.38
2023-03-30T18:45:30.265Z,99531.19
2023-03-30T18:47:59.434Z,99536.38
2023-03-30T18:50:33.082Z,99548.44
2023-03-30T18:53:02.295Z,99549.31
2023-03-30T18:55:31.993Z,99553.63
2023-03-30T18:57:59.669Z,99557.09
2023-03-30T19:00:29.178Z,99551.06
2023-03-30T19:02:57.541Z,99556.22
2023-03-30T19:05:27.254Z,99551.94
2023-03-30T19:07:55.903Z,99553.63
2023-03-30T19:10:26.561Z,99550.19
2023-03-30T19:12:56.590Z,99545.00
2023-03-30T19:15:26.675Z,99543.28
2023-03-30T19:17:55.220Z,99532.06
2023-03-30T19:20:24.687Z,99532.06
2023-03-30T19:22:52.679Z,99538.09
2023-03-30T19:25:22.501Z,99527.75
2023-03-30T19:28:01.927Z,99538.13
2023-03-30T19:30:33.386Z,99532.06
2023-03-30T19:33:04.319Z,99525.16
2023-03-30T19:35:32.914Z,99532.91
2023-03-30T19:38:00.888Z,99531.19
2023-03-30T19:40:28.577Z,99546.72
2023-03-30T19:42:56.181Z,99538.09
2023-03-30T19:45:25.154Z,99540.69
2023-03-30T19:47:54.302Z,99540.59
2023-03-30T19:50:24.751Z,99543.19
2023-03-30T19:52:54.805Z,99539.72
2023-03-30T19:55:22.621Z,99532.81
2023-03-30T19:57:50.477Z,99531.94
2023-03-30T20:00:19.689Z,99516.38
2023-03-30T20:02:48.886Z,99518.97
2023-03-30T20:05:18.702Z,99518.94
2023-03-30T20:07:47.378Z,99532.75
2023-03-30T20:10:18.728Z,99525.84
2023-03-30T20:12:46.590Z,99518.94
2023-03-30T20:15:14.238Z,99505.13
2023-03-30T20:17:42.123Z,99497.31
2023-03-30T20:20:12.593Z,99510.22
2023-03-30T20:22:43.110Z,99497.19
2023-03-30T20:25:13.356Z,99499.69
2023-03-30T20:27:41.406Z,99501.34
2023-03-30T20:30:11.534Z,99494.31
2023-03-30T20:32:39.232Z,99492.47
2023-03-30T20:35:08.272Z,99500.13
2023-03-30T20:37:35.948Z,99496.34
2023-03-30T20:40:09.728Z,99492.84
2023-03-30T20:42:39.643Z,99495.34
2023-03-30T20:45:08.620Z,99490.06
2023-03-30T20:47:36.297Z,99495.09
2023-03-30T20:50:04.601Z,99494.16
2023-03-30T20:52:32.227Z,99502.56
2023-03-30T20:54:59.826Z,99501.56
2023-03-30T20:57:28.828Z,99501.47
2023-03-30T20:59:56.484Z,99503.13
2023-03-30T21:02:24.092Z,99509.91
2023-03-30T21:04:52.927Z,99494.34
2023-03-30T21:07:20.483Z,99498.56
2023-03-30T21:09:48.052Z,99486.44
2023-03-30T21:12:15.712Z,99482.84
2023-03-30T21:14:45.833Z,99490.53
2023-03-30T21:17:13.777Z,99484.34
2023-03-30T21:19:41.362Z,99473.94
2023-03-30T21:22:08.978Z,99471.31
2023-03-30T21:24:36.635Z,99462.66
2023-03-30T21:27:04.349Z,99466.88
2023-03-30T21:29:32.393Z,99462.56
2023-03-30T21:32:01.415Z,99461.75
2023-03-30T21:34:29.010Z,99463.44
2023-03-30T21:36:56.747Z,99465.97
2023-03-30T21:39:25.037Z,99460.81
2023-03-30T21:41:52.570Z,99448.78
2023-03-30T21:44:20.254Z,99446.22
2023-03-30T21:46:47.800Z,99447.13
2023-03-30T21:49:17.118Z,99440.28
2023-03-30T21:51:44.696Z,99445.38
2023-03-30T21:54:12.361Z,99447.94
2023-03-30T21:56:39.886Z,99442.75
2023-03-30T21:59:07.863Z,99448.69
2023-03-30T22:01:35.574Z,99470.13
2023-03-30T22:04:06.015Z,99458.09
2023-03-30T22:06:35.427Z,99453.84
2023-03-30T22:09:03.063Z,99445.56
2023-03-30T22:11:30.841Z,99443.16
2023-03-30T22:13:58.579Z,99442.38
2023-03-30T22:16:28.976Z,99445.94
2023-03-30T22:18:56.791Z,99440.88
2023-03-30T22:21:25.937Z,99439.22
2023-03-30T22:23:55.534Z,99432.38
2023-03-30T22:26:23.478Z,99422.09
2023-03-30T22:28:51.136Z,99419.50
2023-03-30T22:31:18.849Z,99416.94
2023-03-30T22:33:47.908Z,99410.06
2023-03-30T22:36:18.809Z,99405.78
2023-03-30T22:38:46.718Z,99403.25
2023-03-30T22:41:15.933Z,99398.09
2023-03-30T22:43:43.534Z,99391.19
2023-03-30T22:46:11.679Z,99393.63
2023-03-30T22:48:41.275Z,99386.81
2023-03-30T22:51:09.080Z,99386.81
2023-03-30T22:53:38.486Z,99385.03
2023-03-30T22:56:07.524Z,99379.88
2023-03-30T22:58:37.001Z,99366.94
2023-03-30T23:01:06.972Z,99377.25
2023-03-30T23:03:34.803Z,99367.78
2023-03-30T23:06:02.529Z,99366.06
2023-03-30T23:08:30.843Z,99373.78
2023-03-30T23:11:03.742Z,99363.47
2023-03-30T23:13:31.889Z,99370.31
2023-03-30T23:16:01.409Z,99358.28
2023-03-30T23:18:29.191Z,99363.44
2023-03-30T23:20:57.909Z,99376.34
2023-03-30T23:23:25.622Z,99357.47
2023-03-30T23:25:53.485Z,99343.78
2023-03-30T23:28:21.274Z,99346.31
2023-03-30T23:30:49.001Z,99346.31
2023-03-30T23:33:18.078Z,99341.16
2023-03-30T23:35:50.148Z,99332.56
2023-03-30T23:38:18.051Z,99321.34
2023-03-30T23:40:46.363Z,99319.63
2023-03-30T23:43:14.038Z,99305.03
2023-03-30T23:45:43.625Z,99318.78
2023-03-30T23:48:11.340Z,99304.13
2023-03-30T23:50:41.186Z,99305.03
2023-03-30T23:53:09.405Z,99306.63
2023-03-30T23:55:37.627Z,99298.91
2023-03-30T23:58:05.916Z,99293.69
